Time;durP1;ratioP1;P1;durP2;ratioP2;P2;SDS_P1;SDS_P2;PMS_P1;PMS_P2;Temp;Humidity;BMP_temperature;BMP_pressure;BME280_temperature;BME280_humidity;BME280_pressure;Samples;Min_cycle;Max_cycle;Signal;HPM_P1;HPM_P2
2022/05/08 00:01:28;;;;;;;4.53;2.65;;;;;;;11.17;nan;95543.69;5027773;28;20221;-75
2022/05/08 00:03:54;;;;;;;7.43;2.33;;;;;;;11.12;nan;95520.97;5031779;28;20666;-75
2022/05/08 00:06:22;;;;;;;4.10;2.30;;;;;;;11.13;nan;95547.25;5029387;28;20223;-73
2022/05/08 00:08:49;;;;;;;4.35;2.40;;;;;;;11.02;nan;95533.97;5032116;28;20752;-74
2022/05/08 00:11:16;;;;;;;2.95;2.65;;;;;;;11.01;nan;95534.84;5032607;28;20274;-73
2022/05/08 00:13:42;;;;;;;4.70;2.50;;;;;;;10.91;nan;95532.53;5027601;28;20206;-74
2022/05/08 00:16:09;;;;;;;6.07;2.88;;;;;;;10.75;nan;95530.47;5032314;28;20722;-73
2022/05/08 00:18:36;;;;;;;8.25;2.40;;;;;;;10.99;nan;95531.50;5028021;28;20214;-75
2022/05/08 00:21:05;;;;;;;7.18;2.40;;;;;;;10.87;nan;95536.06;5024181;28;20238;-73
2022/05/08 00:23:33;;;;;;;2.28;2.08;;;;;;;11.03;nan;95535.63;5023473;28;20244;-74
2022/05/08 00:26:00;;;;;;;3.40;2.47;;;;;;;11.03;nan;95535.63;5028577;28;20321;-74
2022/05/08 00:28:27;;;;;;;2.72;2.10;;;;;;;10.77;nan;95533.81;5028760;28;20208;-74
2022/05/08 00:30:54;;;;;;;4.75;2.38;;;;;;;10.84;nan;95538.69;5031868;28;20231;-75
2022/05/08 00:33:21;;;;;;;5.35;2.30;;;;;;;10.77;nan;95544.81;5025035;28;20691;-73
2022/05/08 00:35:47;;;;;;;3.58;2.13;;;;;;;10.84;nan;95541.25;5033857;28;20230;-74
2022/05/08 00:38:14;;;;;;;2.28;2.08;;;;;;;10.91;nan;95537.63;5027677;28;20195;-75
2022/05/08 00:40:42;;;;;;;3.95;2.72;;;;;;;10.58;nan;95543.63;5029043;28;20667;-73
2022/05/08 00:43:26;;;;;;;7.35;2.65;;;;;;;10.61;nan;95533.38;5025295;28;20688;-74
2022/05/08 00:45:53;;;;;;;2.90;2.22;;;;;;;10.25;nan;95516.53;5030585;28;20309;-74
2022/05/08 00:48:20;;;;;;;3.95;2.45;;;;;;;10.41;nan;95533.03;5027432;28;20287;-75
2022/05/08 00:50:47;;;;;;;4.32;2.38;;;;;;;10.36;nan;95532.34;5025748;28;20917;-73
2022/05/08 00:53:14;;;;;;;4.80;2.20;;;;;;;10.11;nan;95542.25;5027013;28;20219;-76
2022/05/08 00:55:42;;;;;;;3.90;2.00;;;;;;;10.17;nan;95537.00;5026201;28;20202;-74
2022/05/08 00:58:09;;;;;;;2.30;2.10;;;;;;;10.15;nan;95539.56;5026852;28;20730;-73
2022/05/08 01:00:36;;;;;;;8.52;2.85;;;;;;;10.20;nan;95537.78;5022189;28;20211;-73
2022/05/08 01:03:03;;;;;;;7.20;2.72;;;;;;;10.12;nan;95534.59;5024251;28;20207;-74
2022/05/08 01:05:30;;;;;;;4.10;2.78;;;;;;;10.35;nan;95546.75;5026955;28;20263;-73
2022/05/08 01:07:57;;;;;;;4.07;2.53;;;;;;;10.34;nan;95534.09;5026238;28;20588;-73
2022/05/08 01:10:24;;;;;;;2.35;2.00;;;;;;;10.26;nan;95546.13;5025810;28;20679;-74
2022/05/08 01:12:52;;;;;;;4.90;3.25;;;;;;;10.20;nan;95545.41;5023946;28;20200;-73
2022/05/08 01:15:20;;;;;;;3.25;2.70;;;;;;;10.17;nan;95542.91;5023360;28;20207;-73
2022/05/08 01:17:48;;;;;;;3.78;2.63;;;;;;;10.34;nan;95546.78;5034608;28;20238;-76
2022/05/08 01:20:16;;;;;;;8.65;2.20;;;;;;;10.44;nan;95545.66;5030346;28;20207;-76
2022/05/08 01:22:44;;;;;;;3.90;2.40;;;;;;;10.48;nan;95542.19;5034626;28;20257;-74
2022/05/08 01:25:10;;;;;;;2.90;2.38;;;;;;;10.63;nan;95540.97;5032093;28;21464;-75
2022/05/08 01:27:37;;;;;;;2.55;2.35;;;;;;;10.77;nan;95537.19;5027720;28;20210;-75
2022/05/08 01:30:06;;;;;;;2.55;2.35;;;;;;;10.55;nan;95533.53;5029658;28;20289;-74
2022/05/08 01:32:32;;;;;;;2.80;2.58;;;;;;;10.52;nan;95531.06;5022410;28;20214;-74
2022/05/08 01:34:59;;;;;;;3.58;3.03;;;;;;;10.44;nan;95540.59;5024536;28;20268;-75
2022/05/08 01:37:26;;;;;;;6.90;2.90;;;;;;;10.30;nan;95529.97;5028464;28;20324;-77
2022/05/08 01:39:56;;;;;;;5.18;2.70;;;;;;;10.34;nan;95523.94;5031669;28;20207;-74
2022/05/08 01:42:23;;;;;;;3.97;2.30;;;;;;;10.52;nan;95528.53;5030409;28;20239;-74
2022/05/08 01:44:51;;;;;;;5.50;2.35;;;;;;;10.70;nan;95528.03;5031174;28;20837;-73
2022/05/08 01:50:02;;;;;;;3.70;2.78;;;;;;;10.31;nan;95518.91;5028399;28;20257;-76
2022/05/08 01:52:29;;;;;;;3.83;2.70;;;;;;;10.62;nan;95524.06;5028001;28;20207;-73
2022/05/08 01:54:57;;;;;;;4.18;3.03;;;;;;;10.48;nan;95522.69;5024776;28;20214;-73
2022/05/08 01:57:25;;;;;;;4.85;3.30;;;;;;;10.50;nan;95520.94;5027690;28;20207;-74
2022/05/08 01:59:51;;;;;;;4.80;2.60;;;;;;;10.45;nan;95521.94;5031576;28;20253;-74
2022/05/08 02:02:19;;;;;;;5.82;3.95;;;;;;;10.55;nan;95523.38;5028095;28;20300;-75
2022/05/08 02:04:46;;;;;;;3.55;2.35;;;;;;;10.56;nan;95520.78;5026969;28;20927;-74
2022/05/08 02:07:13;;;;;;;3.65;3.05;;;;;;;10.16;nan;95509.94;5026867;28;20241;-74
2022/05/08 02:09:41;;;;;;;3.08;2.70;;;;;;;10.40;nan;95528.84;5026383;28;20211;-74
2022/05/08 02:12:10;;;;;;;3.22;2.67;;;;;;;10.15;nan;95526.88;5027291;28;20209;-74
2022/05/08 02:14:37;;;;;;;4.07;2.13;;;;;;;10.07;nan;95528.78;5027127;28;20887;-74
2022/05/08 02:17:04;;;;;;;6.93;2.80;;;;;;;10.17;nan;95526.84;5027641;28;20231;-73
2022/05/08 02:19:31;;;;;;;6.53;2.90;;;;;;;10.27;nan;95520.69;5028288;28;20203;-73
2022/05/08 02:21:58;;;;;;;3.53;2.38;;;;;;;10.21;nan;95519.13;5029168;28;20815;-77
2022/05/08 02:24:24;;;;;;;2.53;2.33;;;;;;;9.86;nan;95519.16;5027864;28;20211;-72
2022/05/08 02:26:51;;;;;;;2.40;2.20;;;;;;;9.89;nan;95516.53;5024947;28;20255;-73
2022/05/08 02:29:19;;;;;;;3.63;3.30;;;;;;;9.52;nan;95519.91;5029074;28;20771;-72
2022/05/08 02:31:46;;;;;;;3.42;2.55;;;;;;;9.55;nan;95511.38;5026719;28;21278;-73
2022/05/08 02:34:13;;;;;;;4.68;2.60;;;;;;;9.37;nan;95516.88;5031977;28;20242;-73
2022/05/08 02:36:40;;;;;;;7.38;2.60;;;;;;;9.40;nan;95517.63;5028166;28;20231;-72
2022/05/08 02:39:06;;;;;;;6.20;3.20;;;;;;;9.72;nan;95518.59;5028161;28;20210;-74
2022/05/08 02:41:33;;;;;;;4.68;2.83;;;;;;;9.91;nan;95522.38;5032229;28;20266;-74
2022/05/08 02:44:00;;;;;;;3.83;2.88;;;;;;;9.74;nan;95521.94;5027894;28;20233;-73
2022/05/08 02:46:28;;;;;;;3.22;2.90;;;;;;;9.69;nan;95511.91;5033180;28;20288;-75
2022/05/08 02:48:55;;;;;;;4.60;4.20;;;;;;;9.73;nan;95520.28;5029737;28;20216;-74
2022/05/08 02:51:22;;;;;;;6.43;3.17;;;;;;;9.97;nan;95519.72;5032890;28;20241;-75
2022/05/08 02:53:49;;;;;;;3.35;2.53;;;;;;;10.14;nan;95517.63;5025964;28;20200;-74
2022/05/08 02:59:00;;;;;;;5.78;3.85;;;;;;;10.28;nan;95527.44;5028746;28;20260;-73
2022/05/08 03:01:28;;;;;;;4.78;4.38;;;;;;;10.35;nan;95531.50;5024265;28;20810;-74
2022/05/08 03:03:54;;;;;;;7.88;3.97;;;;;;;10.19;nan;95525.13;5026135;28;20281;-73
2022/05/08 03:06:21;;;;;;;6.07;3.58;;;;;;;10.35;nan;95523.06;5028680;28;20203;-73
2022/05/08 03:08:52;;;;;;;6.05;3.05;;;;;;;10.55;nan;95529.28;5028816;28;20207;-73
2022/05/08 03:11:29;;;;;;;3.58;3.30;;;;;;;10.79;nan;95525.25;5028030;28;20653;-73
2022/05/08 03:13:56;;;;;;;8.13;4.07;;;;;;;10.57;nan;95507.22;5032671;28;20205;-73
2022/05/08 03:16:25;;;;;;;5.82;3.03;;;;;;;10.78;nan;95521.06;5028018;28;20703;-73
2022/05/08 03:18:53;;;;;;;4.10;3.05;;;;;;;10.26;nan;95530.91;5033576;28;20208;-73
2022/05/08 03:21:20;;;;;;;3.40;3.20;;;;;;;10.22;nan;95525.88;5028970;28;20257;-74
2022/05/08 03:23:47;;;;;;;3.97;2.92;;;;;;;10.29;nan;95530.81;5028891;28;20281;-71
2022/05/08 03:26:16;;;;;;;3.67;3.38;;;;;;;10.36;nan;95533.19;5025882;28;20227;-73
2022/05/08 03:28:43;;;;;;;4.95;2.83;;;;;;;10.40;nan;95528.84;5034015;28;20210;-74
2022/05/08 03:31:10;;;;;;;5.97;3.45;;;;;;;10.25;nan;95541.94;5030945;28;20322;-71
2022/05/08 03:33:38;;;;;;;8.40;3.33;;;;;;;10.54;nan;95535.25;5030354;28;20655;-73
2022/05/08 03:36:10;;;;;;;5.70;3.42;;;;;;;10.38;nan;95540.78;5031187;28;20235;-76
2022/05/08 03:38:41;;;;;;;4.38;3.20;;;;;;;10.29;nan;95538.44;5035880;28;20297;-73
2022/05/08 03:41:09;;;;;;;3.42;3.13;;;;;;;10.51;nan;95544.66;5025856;28;20236;-73
2022/05/08 03:43:36;;;;;;;3.80;3.33;;;;;;;10.58;nan;95536.00;5028329;28;20199;-74
2022/05/08 03:46:03;;;;;;;5.95;3.08;;;;;;;10.73;nan;95540.69;5032813;28;20577;-74
2022/05/08 03:48:31;;;;;;;4.30;2.83;;;;;;;11.02;nan;95547.53;5037754;28;20207;-73
2022/05/08 03:50:58;;;;;;;4.53;2.83;;;;;;;10.91;nan;95542.72;5030954;28;20254;-72
2022/05/08 03:53:26;;;;;;;5.40;3.47;;;;;;;11.07;nan;95542.31;5030392;28;20214;-73
2022/05/08 03:55:53;;;;;;;3.45;3.20;;;;;;;10.75;nan;95543.19;5028937;28;20207;-73
2022/05/08 03:58:19;;;;;;;6.38;3.53;;;;;;;11.07;nan;95547.41;5035161;28;20793;-73
2022/05/08 04:00:47;;;;;;;3.47;3.03;;;;;;;11.53;nan;95540.13;5031670;28;20238;-73
2022/05/08 04:03:14;;;;;;;3.33;3.08;;;;;;;11.56;nan;95547.66;5032840;28;20218;-72
2022/05/08 04:05:40;;;;;;;4.32;3.58;;;;;;;11.56;nan;95540.03;5031363;28;20196;-73
2022/05/08 04:08:08;;;;;;;4.22;3.20;;;;;;;11.63;nan;95547.50;5035980;28;20195;-73
2022/05/08 04:10:36;;;;;;;6.07;3.28;;;;;;;11.87;nan;95544.22;5031821;28;20267;-73
2022/05/08 04:13:03;;;;;;;4.70;3.28;;;;;;;12.20;nan;95540.59;5023700;28;20572;-74
2022/05/08 04:18:14;;;;;;;2.92;2.72;;;;;;;12.43;nan;95544.09;5031356;28;20211;-73
2022/05/08 04:20:41;;;;;;;3.85;3.55;;;;;;;12.60;nan;95552.88;5024901;28;20865;-72
2022/05/08 04:25:56;;;;;;;4.40;3.05;;;;;;;12.86;nan;95556.25;4998686;28;20254;-74
2022/05/08 04:28:23;;;;;;;4.75;3.78;;;;;;;12.77;nan;95546.38;5024668;28;20295;-72
2022/05/08 04:30:51;;;;;;;4.07;2.90;;;;;;;12.82;nan;95552.97;5021971;28;20309;-75
2022/05/08 04:33:18;;;;;;;3.67;2.78;;;;;;;12.67;nan;95555.19;5028007;28;21156;-73
2022/05/08 04:35:44;;;;;;;4.70;2.67;;;;;;;12.13;nan;95556.94;5024569;28;20204;-73
2022/05/08 04:38:12;;;;;;;3.60;2.85;;;;;;;12.09;nan;95552.03;5033298;28;20246;-73
2022/05/08 04:40:41;;;;;;;7.22;3.53;;;;;;;12.35;nan;95564.78;5029007;28;20199;-72
2022/05/08 04:43:09;;;;;;;4.25;2.75;;;;;;;12.50;nan;95563.44;5027140;28;20214;-72
2022/05/08 04:45:36;;;;;;;2.83;2.63;;;;;;;12.49;nan;95543.91;5030674;28;20357;-73
2022/05/08 04:48:03;;;;;;;6.45;2.70;;;;;;;12.74;nan;95557.50;5023782;28;20235;-74
2022/05/08 04:50:30;;;;;;;4.20;2.67;;;;;;;12.89;nan;95556.97;5029828;28;20238;-76
2022/05/08 04:52:56;;;;;;;6.32;2.88;;;;;;;13.04;nan;95555.63;5034040;28;20208;-74
2022/05/08 04:55:23;;;;;;;6.38;2.90;;;;;;;13.23;nan;95564.31;5021587;28;20772;-74
2022/05/08 04:57:50;;;;;;;4.65;3.10;;;;;;;13.23;nan;95563.47;5029117;28;20736;-73
2022/05/08 05:00:19;;;;;;;6.18;2.83;;;;;;;13.41;nan;95567.06;5031594;28;20199;-74
2022/05/08 05:02:46;;;;;;;3.33;2.90;;;;;;;13.39;nan;95568.84;5032523;28;20211;-73
2022/05/08 05:05:13;;;;;;;4.30;2.92;;;;;;;13.88;nan;95560.19;5035266;28;20264;-74
2022/05/08 05:07:41;;;;;;;6.18;2.88;;;;;;;14.23;nan;95567.31;5029853;28;20207;-74
2022/05/08 05:10:10;;;;;;;6.18;3.10;;;;;;;14.65;nan;95558.81;5027473;28;20208;-73
2022/05/08 05:12:37;;;;;;;3.55;2.72;;;;;;;14.21;nan;95569.09;5033347;28;20277;-74
2022/05/08 05:15:04;;;;;;;6.20;3.20;;;;;;;14.75;nan;95555.00;5029279;28;20211;-76
2022/05/08 05:17:33;;;;;;;3.05;2.75;;;;;;;15.62;nan;95561.44;5024511;28;20686;-75
2022/05/08 05:20:00;;;;;;;4.68;3.17;;;;;;;16.08;nan;95560.16;5028892;28;20285;-73
2022/05/08 05:22:26;;;;;;;4.72;3.03;;;;;;;17.64;nan;95558.28;5023172;28;20246;-73
2022/05/08 05:24:56;;;;;;;3.80;3.00;;;;;;;19.45;nan;95553.13;5032013;28;20234;-75
2022/05/08 05:27:22;;;;;;;4.38;3.00;;;;;;;20.03;nan;95549.56;5022737;28;20267;-73
2022/05/08 05:29:49;;;;;;;5.57;3.47;;;;;;;20.28;nan;95556.59;5030483;28;20973;-74
2022/05/08 05:32:16;;;;;;;5.85;3.25;;;;;;;20.77;nan;95553.44;5029538;28;20292;-77
2022/05/08 05:34:44;;;;;;;6.15;2.80;;;;;;;20.77;nan;95550.84;5033182;28;20202;-73
2022/05/08 05:37:11;;;;;;;5.28;3.00;;;;;;;21.57;nan;95545.38;5026741;28;20309;-74
2022/05/08 05:39:38;;;;;;;6.35;3.10;;;;;;;24.36;nan;95540.91;5032213;28;20226;-73
2022/05/08 05:42:05;;;;;;;3.55;3.03;;;;;;;25.35;nan;95542.28;5026072;28;20207;-72
2022/05/08 05:44:32;;;;;;;5.35;2.45;;;;;;;25.58;nan;95541.16;5029173;28;20261;-74
2022/05/08 05:49:44;;;;;;;3.47;3.20;;;;;;;26.74;nan;95536.19;5027609;28;20234;-74
2022/05/08 05:52:11;;;;;;;5.15;2.60;;;;;;;25.98;nan;95542.97;5024228;28;20281;-76
2022/05/08 05:54:37;;;;;;;5.97;2.95;;;;;;;26.57;nan;95544.72;5025991;28;20210;-75
2022/05/08 05:57:05;;;;;;;13.23;10.05;;;;;;;26.39;nan;95534.16;5029590;28;20756;-74
2022/05/08 05:59:31;;;;;;;15.45;10.73;;;;;;;28.21;nan;95537.25;5032758;28;20884;-75
2022/05/08 06:01:58;;;;;;;8.68;5.60;;;;;;;29.48;nan;95536.03;5022049;28;20235;-74
2022/05/08 06:04:25;;;;;;;4.70;3.30;;;;;;;30.00;nan;95515.81;5026530;28;20211;-74
2022/05/08 06:06:53;;;;;;;13.32;9.45;;;;;;;28.33;nan;95528.25;5023675;28;20945;-74
2022/05/08 06:09:20;;;;;;;15.48;11.05;;;;;;;28.47;nan;95526.06;5028842;28;20234;-74
2022/05/08 06:11:47;;;;;;;4.55;3.30;;;;;;;28.21;nan;95526.81;5026084;28;20239;-75
2022/05/08 06:14:14;;;;;;;2.70;1.92;;;;;;;27.57;nan;95534.66;5028017;28;20207;-74
2022/05/08 06:16:42;;;;;;;6.75;2.97;;;;;;;27.06;nan;95526.31;5032158;28;20670;-73
2022/05/08 06:19:09;;;;;;;3.40;3.10;;;;;;;26.77;nan;95530.69;5030726;28;20227;-75
2022/05/08 06:21:36;;;;;;;3.15;2.83;;;;;;;27.10;nan;95519.84;5033408;28;20203;-72
2022/05/08 06:24:05;;;;;;;2.85;2.60;;;;;;;27.76;nan;95527.59;5032756;28;21267;-73
2022/05/08 06:26:32;;;;;;;3.67;3.03;;;;;;;27.05;nan;95529.88;5031153;28;20750;-76
2022/05/08 06:28:59;;;;;;;5.18;2.70;;;;;;;26.95;nan;95528.25;5038411;28;20268;-74
2022/05/08 06:31:27;;;;;;;4.20;2.40;;;;;;;26.89;nan;95527.00;5031917;28;20248;-73
2022/05/08 06:33:54;;;;;;;7.53;5.82;;;;;;;26.68;nan;95531.56;5035586;28;20199;-73
2022/05/08 06:36:21;;;;;;;4.18;3.60;;;;;;;27.43;nan;95522.91;5027119;28;20281;-73
2022/05/08 06:38:48;;;;;;;6.68;3.85;;;;;;;27.69;nan;95518.72;5030703;28;20748;-73
2022/05/08 06:41:16;;;;;;;7.15;3.20;;;;;;;26.43;nan;95518.09;5035866;28;20207;-74
2022/05/08 06:43:44;;;;;;;4.15;3.42;;;;;;;26.07;nan;95516.13;5031338;28;20269;-74
2022/05/08 06:46:11;;;;;;;6.70;3.05;;;;;;;24.70;nan;95514.78;5031289;28;20205;-74
2022/05/08 06:48:38;;;;;;;3.92;2.83;;;;;;;24.39;nan;95519.88;5036099;28;20203;-74
2022/05/08 06:51:05;;;;;;;9.05;3.15;;;;;;;23.54;nan;95516.25;5029609;28;20203;-75
2022/05/08 06:53:32;;;;;;;5.03;3.17;;;;;;;24.08;nan;95513.69;5032938;28;20254;-73
2022/05/08 06:55:59;;;;;;;5.38;3.38;;;;;;;24.23;nan;95509.06;5032574;28;20199;-75
2022/05/08 06:58:28;;;;;;;4.10;3.38;;;;;;;23.99;nan;95509.25;5034330;28;20312;-74
2022/05/08 07:03:39;;;;;;;4.97;2.70;;;;;;;23.84;nan;95512.22;5033605;28;20273;-74
2022/05/08 07:06:06;;;;;;;3.97;3.28;;;;;;;23.01;nan;95504.78;5031507;28;20200;-74
2022/05/08 07:08:33;;;;;;;4.88;3.60;;;;;;;21.96;nan;95496.97;5035873;28;20210;-73
2022/05/08 07:11:01;;;;;;;3.45;2.55;;;;;;;21.73;nan;95512.38;5031109;28;20223;-73
2022/05/08 07:13:29;;;;;;;3.47;2.92;;;;;;;22.63;nan;95508.44;5031400;28;20730;-73
2022/05/08 07:15:56;;;;;;;3.42;2.83;;;;;;;23.51;nan;95513.84;5031899;28;20227;-73
2022/05/08 07:18:23;;;;;;;4.38;2.88;;;;;;;22.53;nan;95506.63;5036727;28;20683;-73
2022/05/08 07:20:49;;;;;;;5.07;2.92;;;;;;;21.97;nan;95514.97;5033428;28;20203;-74
2022/05/08 07:23:17;;;;;;;3.97;3.47;;;;;;;22.44;nan;95509.91;5033608;28;20317;-75
2022/05/08 07:25:44;;;;;;;7.43;3.22;;;;;;;21.85;nan;95510.66;5033527;28;20215;-73
2022/05/08 07:28:11;;;;;;;5.60;3.55;;;;;;;22.29;nan;95507.50;5031165;28;20298;-73
2022/05/08 07:30:39;;;;;;;2.88;2.67;;;;;;;22.38;nan;95504.25;5030995;28;20671;-74
2022/05/08 07:33:06;;;;;;;7.35;2.63;;;;;;;22.29;nan;95504.91;5033845;28;20742;-73
2022/05/08 07:38:21;;;;;;;2.95;2.58;;;;;;;21.40;nan;95501.78;5034026;28;20202;-74
2022/05/08 07:40:48;;;;;;;4.90;3.35;;;;;;;21.44;nan;95494.63;5026879;28;20200;-76
2022/05/08 07:43:16;;;;;;;6.65;5.65;;;;;;;21.53;nan;95494.00;5031723;28;20203;-75
2022/05/08 07:45:45;;;;;;;10.25;3.13;;;;;;;21.96;nan;95497.78;5026516;28;20200;-72
2022/05/08 07:48:12;;;;;;;5.20;3.10;;;;;;;22.01;nan;95500.91;5032697;28;20622;-73
2022/05/08 07:50:39;;;;;;;3.90;3.03;;;;;;;21.69;nan;95485.03;5026965;28;20290;-72
2022/05/08 07:53:06;;;;;;;4.18;3.72;;;;;;;21.46;nan;95492.78;5028792;28;20774;-74
2022/05/08 07:55:33;;;;;;;4.20;2.90;;;;;;;21.74;nan;95487.31;5028270;28;20529;-73
2022/05/08 07:57:59;;;;;;;4.25;3.10;;;;;;;22.27;nan;95491.22;5032684;28;20321;-73
2022/05/08 08:00:26;;;;;;;9.75;3.67;;;;;;;22.16;nan;95478.25;5029839;28;20261;-73
2022/05/08 08:02:55;;;;;;;6.07;3.35;;;;;;;21.81;nan;95485.09;5027808;28;20223;-74
2022/05/08 08:05:22;;;;;;;4.00;3.20;;;;;;;21.41;nan;95484.50;5031653;28;20703;-75
2022/05/08 08:07:49;;;;;;;4.72;3.05;;;;;;;21.10;nan;95480.56;5028211;28;20228;-73
2022/05/08 08:10:16;;;;;;;3.92;3.38;;;;;;;21.03;nan;95465.47;5030062;28;20262;-73
2022/05/08 08:12:43;;;;;;;5.50;3.38;;;;;;;20.85;nan;95481.41;5027767;28;20275;-72
2022/05/08 08:15:11;;;;;;;6.35;3.47;;;;;;;21.23;nan;95476.25;5030423;28;20266;-72
2022/05/08 08:17:39;;;;;;;6.97;3.53;;;;;;;21.36;nan;95469.31;5029566;28;20296;-71
2022/05/08 08:20:21;;;;;;;4.13;3.70;;;;;;;21.26;nan;95476.06;5024906;28;21795;-74
2022/05/08 08:22:48;;;;;;;3.55;3.25;;;;;;;21.13;nan;95470.03;5034817;28;20678;-75
2022/05/08 08:25:15;;;;;;;3.72;3.40;;;;;;;21.29;nan;95468.06;5022701;28;20294;-72
2022/05/08 08:27:42;;;;;;;4.88;3.05;;;;;;;21.63;nan;95467.38;5024878;28;20211;-73
2022/05/08 08:30:10;;;;;;;7.43;3.97;;;;;;;21.57;nan;95472.97;5035719;28;20199;-74
2022/05/08 08:32:36;;;;;;;3.85;3.55;;;;;;;21.28;nan;95469.81;5022878;28;20254;-75
2022/05/08 08:35:04;;;;;;;10.38;3.20;;;;;;;21.37;nan;95469.19;5031801;28;20256;-72
2022/05/08 08:37:32;;;;;;;3.53;3.22;;;;;;;21.30;nan;95469.72;5029224;28;20250;-76
2022/05/08 08:39:59;;;;;;;3.80;3.50;;;;;;;20.64;nan;95468.19;5024725;28;20278;-68
2022/05/08 08:42:31;;;;;;;4.20;3.42;;;;;;;20.72;nan;95455.59;5014706;28;20287;-65
2022/05/08 08:47:53;;;;;;;6.82;3.70;;;;;;;21.14;nan;95461.34;5014875;28;20334;-66
2022/05/08 08:50:23;;;;;;;3.67;3.30;;;;;;;20.77;nan;95458.69;5014606;28;20281;-66
2022/05/08 08:52:52;;;;;;;3.17;2.97;;;;;;;20.66;nan;95454.25;5014636;28;20559;-65
2022/05/08 08:55:20;;;;;;;4.20;3.38;;;;;;;21.05;nan;95453.28;5015124;28;20274;-66
2022/05/08 08:57:48;;;;;;;5.47;3.20;;;;;;;21.19;nan;95434.25;5012880;28;20671;-66
2022/05/08 09:00:15;;;;;;;6.30;3.60;;;;;;;21.57;nan;95448.88;5013759;28;20974;-64
2022/05/08 09:02:42;;;;;;;2.97;2.78;;;;;;;21.32;nan;95455.75;5013867;28;20207;-65
2022/05/08 09:05:11;;;;;;;5.07;3.15;;;;;;;20.96;nan;95448.75;5013848;28;20251;-65
2022/05/08 09:07:39;;;;;;;3.33;2.92;;;;;;;20.99;nan;95447.72;5014396;28;20255;-66
2022/05/08 09:10:16;;;;;;;3.40;3.10;;;;;;;20.83;nan;95442.75;5012820;28;20622;-64
2022/05/08 09:12:45;;;;;;;3.67;3.28;;;;;;;21.01;nan;95436.38;5014440;28;20238;-65
2022/05/08 09:15:21;;;;;;;5.88;3.03;;;;;;;21.57;nan;95438.53;5013240;28;22137;-65
2022/05/08 09:17:50;;;;;;;7.13;3.45;;;;;;;21.61;nan;95435.63;5014382;28;20312;-66
2022/05/08 09:20:26;;;;;;;3.22;3.03;;;;;;;21.77;nan;95424.19;5014942;28;20672;-65
2022/05/08 09:23:14;;;;;;;2.42;2.22;;;;;;;21.36;nan;95435.69;5015370;28;21233;-65
2022/05/08 09:25:48;;;;;;;3.63;2.92;;;;;;;21.23;nan;95430.56;5014586;28;20704;-65
2022/05/08 09:28:16;;;;;;;8.63;3.47;;;;;;;21.03;nan;95431.88;5014663;28;20362;-66
2022/05/08 09:30:55;;;;;;;6.10;3.67;;;;;;;20.76;nan;95426.06;5014470;28;20258;-65
2022/05/08 09:33:26;;;;;;;3.33;3.13;;;;;;;20.98;nan;95423.66;5014759;28;20734;-65
2022/05/08 09:35:53;;;;;;;3.80;3.50;;;;;;;21.12;nan;95424.44;5014172;28;20239;-65
2022/05/08 09:38:20;;;;;;;5.05;3.58;;;;;;;21.24;nan;95421.06;5015169;28;20231;-66
2022/05/08 09:41:05;;;;;;;3.15;2.95;;;;;;;21.05;nan;95430.03;5014090;28;20200;-65
2022/05/08 09:43:32;;;;;;;4.63;3.42;;;;;;;20.92;nan;95418.91;5014648;28;20594;-66
2022/05/08 09:46:00;;;;;;;4.10;3.03;;;;;;;20.92;nan;95412.91;5014521;28;20684;-66
2022/05/08 09:48:29;;;;;;;3.20;2.60;;;;;;;20.99;nan;95407.22;5016401;28;20290;-66
2022/05/08 09:50:57;;;;;;;4.68;2.67;;;;;;;21.12;nan;95401.19;5013052;28;20208;-66
2022/05/08 09:53:25;;;;;;;3.45;2.63;;;;;;;21.06;nan;95392.91;5014614;28;20711;-66
2022/05/08 09:55:54;;;;;;;3.85;2.42;;;;;;;21.25;nan;95405.44;5013154;28;20666;-66
2022/05/08 09:58:22;;;;;;;2.25;2.05;;;;;;;21.08;nan;95394.56;5013692;28;20283;-64
2022/05/08 10:00:51;;;;;;;2.83;1.95;;;;;;;21.26;nan;95390.75;5015439;28;20235;-65
2022/05/08 10:03:18;;;;;;;5.70;2.17;;;;;;;21.26;nan;95389.00;5012843;28;20282;-66
2022/05/08 10:05:46;;;;;;;2.17;2.08;;;;;;;21.31;nan;95375.72;5014072;28;21047;-67
2022/05/08 10:08:14;;;;;;;3.47;2.00;;;;;;;21.66;nan;95386.97;5014300;28;20274;-67
2022/05/08 10:13:56;;;;;;;1.30;1.25;;;;;;;21.65;nan;95385.31;5012898;28;20234;-65
2022/05/08 10:16:45;;;;;;;3.03;1.10;;;;;;;21.89;nan;95387.88;5012608;28;20232;-65
2022/05/08 10:19:53;;;;;;;1.63;1.52;;;;;;;21.93;nan;95376.38;5014766;28;20364;-66
2022/05/08 10:22:20;;;;;;;1.00;1.00;;;;;;;22.30;nan;95365.91;5012422;28;20238;-66
2022/05/08 10:24:51;;;;;;;1.08;1.08;;;;;;;22.51;nan;95363.50;5013287;28;20206;-65
2022/05/08 10:27:20;;;;;;;1.90;1.80;;;;;;;22.18;nan;95367.66;5012739;28;20247;-66
2022/05/08 10:30:32;;;;;;;1.88;1.67;;;;;;;21.85;nan;95364.94;5013250;28;20253;-67
2022/05/08 10:33:01;;;;;;;1.60;1.58;;;;;;;21.92;nan;95356.63;5013479;28;20234;-66
2022/05/08 10:35:30;;;;;;;1.70;1.60;;;;;;;22.08;nan;95351.16;5012108;28;20199;-65
2022/05/08 10:38:21;;;;;;;1.75;1.65;;;;;;;22.14;nan;95350.69;5012980;28;20212;-64
2022/05/08 10:40:49;;;;;;;1.40;1.30;;;;;;;22.06;nan;95348.69;5005726;28;20222;-65
2022/05/08 10:43:32;;;;;;;1.60;1.50;;;;;;;22.04;nan;95344.56;5012928;28;20596;-64
2022/05/08 10:46:22;;;;;;;1.60;1.50;;;;;;;22.27;nan;95345.44;5014628;28;20203;-66
2022/05/08 10:48:54;;;;;;;1.55;1.45;;;;;;;22.56;nan;95340.63;5012781;28;20206;-64
2022/05/08 10:51:22;;;;;;;1.85;1.50;;;;;;;22.51;nan;95337.59;5011620;28;20208;-65
2022/05/08 10:53:48;;;;;;;1.83;1.73;;;;;;;22.20;nan;95337.31;5011726;28;20238;-64
2022/05/08 10:56:15;;;;;;;2.00;1.90;;;;;;;21.87;nan;95334.59;5011850;28;20683;-64
2022/05/08 10:58:54;;;;;;;6.30;3.55;;;;;;;21.88;nan;95328.47;5014767;28;20208;-65
2022/05/08 11:01:23;;;;;;;1.50;1.40;;;;;;;21.75;nan;95320.81;5017840;28;20196;-66
2022/05/08 11:03:51;;;;;;;1.80;1.70;;;;;;;21.86;nan;95335.53;5016335;28;20208;-67
2022/05/08 11:06:22;;;;;;;2.00;1.90;;;;;;;21.91;nan;95316.16;5016319;28;20204;-66
2022/05/08 11:08:49;;;;;;;3.05;2.75;;;;;;;22.16;nan;95320.34;5015137;28;20295;-65
2022/05/08 11:11:17;;;;;;;1.85;1.60;;;;;;;22.11;nan;95319.88;5016259;28;20635;-64
2022/05/08 11:13:46;;;;;;;2.45;1.85;;;;;;;22.30;nan;95309.78;5015586;28;20236;-67
2022/05/08 11:16:15;;;;;;;2.10;2.00;;;;;;;22.63;nan;95310.72;5015908;28;20235;-65
2022/05/08 11:18:43;;;;;;;4.00;2.08;;;;;;;22.41;nan;95308.97;5015027;28;20283;-66
2022/05/08 11:21:11;;;;;;;2.83;2.63;;;;;;;22.26;nan;95312.72;5016846;28;20199;-65
2022/05/08 11:23:44;;;;;;;3.10;2.78;;;;;;;22.21;nan;95314.84;5016836;28;20208;-65
2022/05/08 11:26:12;;;;;;;2.95;2.67;;;;;;;22.02;nan;95305.03;5017714;28;20256;-66
2022/05/08 11:28:48;;;;;;;3.60;1.70;;;;;;;22.13;nan;95307.63;5019336;28;21357;-77
2022/05/08 11:31:16;;;;;;;2.65;2.17;;;;;;;22.24;nan;95299.91;5032136;28;20222;-76
2022/05/08 11:36:31;;;;;;;2.30;1.92;;;;;;;22.40;nan;95300.38;5023028;28;20211;-76
2022/05/08 11:39:00;;;;;;;2.60;2.40;;;;;;;22.45;nan;95301.78;5024150;28;20212;-76
2022/05/08 11:41:28;;;;;;;2.10;2.00;;;;;;;22.33;nan;95294.00;5028266;28;20586;-75
2022/05/08 11:43:56;;;;;;;2.95;1.92;;;;;;;22.36;nan;95296.38;5026136;28;20249;-75
2022/05/08 11:46:35;;;;;;;4.47;2.10;;;;;;;22.27;nan;95299.63;5027554;28;20204;-77
2022/05/08 11:49:02;;;;;;;1.92;1.83;;;;;;;22.44;nan;95284.59;5032349;28;20200;-76
2022/05/08 11:51:42;;;;;;;1.60;1.50;;;;;;;22.45;nan;95281.91;5021136;28;20250;-77
2022/05/08 11:54:38;;;;;;;2.30;2.10;;;;;;;22.25;nan;95282.59;5022241;28;20227;-78
2022/05/08 11:57:16;;;;;;;1.50;1.40;;;;;;;22.21;nan;95284.59;5020208;28;20614;-76
2022/05/08 11:59:47;;;;;;;3.45;1.70;;;;;;;22.39;nan;95278.00;5017842;28;20218;-79
2022/05/08 12:02:23;;;;;;;2.60;2.40;;;;;;;22.41;nan;95280.47;5016419;28;20907;-77
2022/05/08 12:04:55;;;;;;;1.85;1.75;;;;;;;22.64;nan;95274.34;5022068;28;20257;-74
2022/05/08 12:07:24;;;;;;;1.70;1.60;;;;;;;22.72;nan;95273.75;5014032;28;20192;-78
2022/05/08 12:09:55;;;;;;;2.58;2.10;;;;;;;22.92;nan;95269.63;5015986;28;20199;-77
2022/05/08 12:12:26;;;;;;;2.13;2.03;;;;;;;22.91;nan;95265.38;5015856;28;20199;-76
2022/05/08 12:14:53;;;;;;;1.95;1.85;;;;;;;22.63;nan;95261.50;5015204;28;20267;-79
2022/05/08 12:17:20;;;;;;;1.70;1.60;;;;;;;22.64;nan;95255.38;5011772;28;20663;-79
2022/05/08 12:19:51;;;;;;;2.22;2.03;;;;;;;22.78;nan;95255.16;5015707;28;20215;-78
2022/05/08 12:22:19;;;;;;;1.52;1.42;;;;;;;22.61;nan;95264.22;5014710;28;20706;-76
2022/05/08 12:24:47;;;;;;;3.45;1.25;;;;;;;22.62;nan;95233.97;5014323;28;20305;-78
2022/05/08 12:27:14;;;;;;;2.35;2.15;;;;;;;23.05;nan;95244.38;5014880;28;20636;-78